sensor_id;sensor_type;location;lat;lon;timestamp;pressure;altitude;pressure_sealevel;temperature;humidity
77526;BME280;66627;29.424;-98.496;2023-04-03T00:01:41;98125.44;;;31.10;32.36
77526;BME280;66627;29.424;-98.496;2023-04-03T00:04:07;98124.28;;;31.47;32.54
77526;BME280;66627;29.424;-98.496;2023-04-03T00:06:33;98124.02;;;30.82;32.38
77526;BME280;66627;29.424;-98.496;2023-04-03T00:08:58;98129.12;;;30.50;32.54
77526;BME280;66627;29.424;-98.496;2023-04-03T00:11:24;98128.16;;;30.32;33.03
77526;BME280;66627;29.424;-98.496;2023-04-03T00:13:50;98121.22;;;31.10;32.40
77526;BME280;66627;29.424;-98.496;2023-04-03T00:16:15;98118.58;;;30.84;32.43
77526;BME280;66627;29.424;-98.496;2023-04-03T00:18:41;98118.44;;;30.89;32.52
77526;BME280;66627;29.424;-98.496;2023-04-03T00:21:07;98117.56;;;31.00;32.53
77526;BME280;66627;29.424;-98.496;2023-04-03T00:23:33;98116.68;;;30.69;32.79
77526;BME280;66627;29.424;-98.496;2023-04-03T00:25:58;98113.79;;;30.73;33.23
77526;BME280;66627;29.424;-98.496;2023-04-03T00:28:24;98115.85;;;30.76;32.84
77526;BME280;66627;29.424;-98.496;2023-04-03T00:30:50;98113.02;;;30.30;33.22
77526;BME280;66627;29.424;-98.496;2023-04-03T00:33:15;98115.67;;;30.58;32.58
77526;BME280;66627;29.424;-98.496;2023-04-03T00:35:41;98123.79;;;30.12;33.21
77526;BME280;66627;29.424;-98.496;2023-04-03T00:38:06;98127.73;;;30.32;33.22
77526;BME280;66627;29.424;-98.496;2023-04-03T00:40:35;98129.36;;;30.11;33.45
77526;BME280;66627;29.424;-98.496;2023-04-03T00:42:58;98131.98;;;30.15;33.22
77526;BME280;66627;29.424;-98.496;2023-04-03T00:45:30;98130.12;;;30.05;33.63
77526;BME280;66627;29.424;-98.496;2023-04-03T00:47:48;98125.49;;;30.11;33.31
77526;BME280;66627;29.424;-98.496;2023-04-03T00:50:13;98123.82;;;30.02;33.29
77526;BME280;66627;29.424;-98.496;2023-04-03T00:52:39;98122.10;;;30.51;33.26
77526;BME280;66627;29.424;-98.496;2023-04-03T00:55:06;98126.93;;;29.85;33.70
77526;BME280;66627;29.424;-98.496;2023-04-03T00:57:29;98126.18;;;29.86;33.72
77526;BME280;66627;29.424;-98.496;2023-04-03T00:59:57;98126.90;;;29.27;34.37
77526;BME280;66627;29.424;-98.496;2023-04-03T01:02:24;98132.22;;;30.33;33.81
77526;BME280;66627;29.424;-98.496;2023-04-03T01:04:45;98133.98;;;30.33;33.52
77526;BME280;66627;29.424;-98.496;2023-04-03T01:07:12;98141.38;;;30.49;33.54
77526;BME280;66627;29.424;-98.496;2023-04-03T01:09:38;98141.01;;;30.12;34.03
77526;BME280;66627;29.424;-98.496;2023-04-03T01:12:13;98140.49;;;29.58;34.23
77526;BME280;66627;29.424;-98.496;2023-04-03T01:14:27;98137.60;;;29.27;34.59
77526;BME280;66627;29.424;-98.496;2023-04-03T01:16:53;98138.25;;;29.92;34.28
77526;BME280;66627;29.424;-98.496;2023-04-03T01:19:18;98134.99;;;30.03;34.46
77526;BME280;66627;29.424;-98.496;2023-04-03T01:24:22;98136.02;;;29.51;34.63
77526;BME280;66627;29.424;-98.496;2023-04-03T01:26:35;98138.40;;;29.70;34.45
77526;BME280;66627;29.424;-98.496;2023-04-03T01:29:01;98137.17;;;29.39;34.62
77526;BME280;66627;29.424;-98.496;2023-04-03T01:31:28;98134.22;;;29.46;34.52
77526;BME280;66627;29.424;-98.496;2023-04-03T01:33:51;98130.82;;;29.38;34.73
77526;BME280;66627;29.424;-98.496;2023-04-03T01:36:18;98132.71;;;29.15;34.83
77526;BME280;66627;29.424;-98.496;2023-04-03T01:38:42;98133.80;;;28.85;35.30
77526;BME280;66627;29.424;-98.496;2023-04-03T01:41:06;98135.05;;;29.55;34.49
77526;BME280;66627;29.424;-98.496;2023-04-03T01:43:32;98141.36;;;29.68;34.54
77526;BME280;66627;29.424;-98.496;2023-04-03T01:45:58;98141.46;;;29.49;35.13
77526;BME280;66627;29.424;-98.496;2023-04-03T01:48:23;98142.53;;;29.22;35.37
77526;BME280;66627;29.424;-98.496;2023-04-03T01:50:48;98142.92;;;29.11;35.28
77526;BME280;66627;29.424;-98.496;2023-04-03T01:53:14;98146.30;;;29.26;35.26
77526;BME280;66627;29.424;-98.496;2023-04-03T01:55:39;98146.18;;;28.72;35.69
77526;BME280;66627;29.424;-98.496;2023-04-03T01:58:04;98153.89;;;28.71;35.84
77526;BME280;66627;29.424;-98.496;2023-04-03T02:00:29;98157.29;;;29.32;35.08
77526;BME280;66627;29.424;-98.496;2023-04-03T02:02:55;98159.59;;;29.21;35.38
77526;BME280;66627;29.424;-98.496;2023-04-03T02:05:20;98161.10;;;29.05;35.20
77526;BME280;66627;29.424;-98.496;2023-04-03T02:07:46;98160.70;;;28.99;35.46
77526;BME280;66627;29.424;-98.496;2023-04-03T02:10:11;98167.55;;;28.05;37.33
77526;BME280;66627;29.424;-98.496;2023-04-03T02:12:36;98171.74;;;28.32;37.75
77526;BME280;66627;29.424;-98.496;2023-04-03T02:15:02;98183.64;;;27.73;38.95
77526;BME280;66627;29.424;-98.496;2023-04-03T02:17:26;98191.80;;;28.20;38.99
77526;BME280;66627;29.424;-98.496;2023-04-03T02:19:52;98198.28;;;27.91;40.03
77526;BME280;66627;29.424;-98.496;2023-04-03T02:22:17;98200.92;;;27.49;41.27
77526;BME280;66627;29.424;-98.496;2023-04-03T02:24:43;98200.37;;;27.55;41.42
77526;BME280;66627;29.424;-98.496;2023-04-03T02:27:08;98201.75;;;27.32;42.52
77526;BME280;66627;29.424;-98.496;2023-04-03T02:29:33;98209.59;;;27.87;41.71
77526;BME280;66627;29.424;-98.496;2023-04-03T02:31:59;98209.70;;;27.60;41.97
77526;BME280;66627;29.424;-98.496;2023-04-03T02:34:24;98214.51;;;27.65;42.16
77526;BME280;66627;29.424;-98.496;2023-04-03T02:36:50;98212.50;;;27.36;43.00
77526;BME280;66627;29.424;-98.496;2023-04-03T02:39:14;98212.43;;;27.48;43.55
77526;BME280;66627;29.424;-98.496;2023-04-03T02:41:40;98216.94;;;27.41;43.85
77526;BME280;66627;29.424;-98.496;2023-04-03T02:44:09;98220.92;;;27.00;44.22
77526;BME280;66627;29.424;-98.496;2023-04-03T02:46:31;98218.29;;;27.50;44.32
77526;BME280;66627;29.424;-98.496;2023-04-03T02:48:56;98223.67;;;27.10;45.01
77526;BME280;66627;29.424;-98.496;2023-04-03T02:51:22;98223.76;;;26.61;46.02
77526;BME280;66627;29.424;-98.496;2023-04-03T02:53:47;98231.32;;;26.24;46.60
77526;BME280;66627;29.424;-98.496;2023-04-03T02:56:13;98235.02;;;26.09;46.42
77526;BME280;66627;29.424;-98.496;2023-04-03T02:58:38;98239.88;;;26.02;47.39
77526;BME280;66627;29.424;-98.496;2023-04-03T03:01:04;98242.98;;;25.42;47.96
77526;BME280;66627;29.424;-98.496;2023-04-03T03:03:30;98242.68;;;26.11;47.63
77526;BME280;66627;29.424;-98.496;2023-04-03T03:06:01;98248.39;;;26.54;47.06
77526;BME280;66627;29.424;-98.496;2023-04-03T03:08:21;98246.56;;;25.90;47.71
77526;BME280;66627;29.424;-98.496;2023-04-03T03:10:46;98243.65;;;25.71;47.91
77526;BME280;66627;29.424;-98.496;2023-04-03T03:13:12;98247.89;;;25.65;48.40
77526;BME280;66627;29.424;-98.496;2023-04-03T03:15:37;98243.41;;;25.03;49.22
77526;BME280;66627;29.424;-98.496;2023-04-03T03:18:03;98244.88;;;25.46;48.90
77526;BME280;66627;29.424;-98.496;2023-04-03T03:20:28;98242.73;;;25.71;48.51
77526;BME280;66627;29.424;-98.496;2023-04-03T03:22:54;98247.92;;;26.06;47.86
77526;BME280;66627;29.424;-98.496;2023-04-03T03:25:20;98247.91;;;25.89;48.01
77526;BME280;66627;29.424;-98.496;2023-04-03T03:27:45;98249.96;;;26.12;47.77
77526;BME280;66627;29.424;-98.496;2023-04-03T03:30:11;98254.50;;;25.72;48.37
77526;BME280;66627;29.424;-98.496;2023-04-03T03:32:35;98257.56;;;26.56;47.03
77526;BME280;66627;29.424;-98.496;2023-04-03T03:35:01;98255.71;;;26.29;47.44
77526;BME280;66627;29.424;-98.496;2023-04-03T03:37:26;98262.91;;;26.34;46.98
77526;BME280;66627;29.424;-98.496;2023-04-03T03:39:53;98267.02;;;26.24;47.18
77526;BME280;66627;29.424;-98.496;2023-04-03T03:42:17;98265.41;;;26.39;46.87
77526;BME280;66627;29.424;-98.496;2023-04-03T03:44:43;98262.63;;;26.91;46.25
77526;BME280;66627;29.424;-98.496;2023-04-03T03:47:07;98260.20;;;25.87;47.73
77526;BME280;66627;29.424;-98.496;2023-04-03T03:49:33;98262.44;;;26.57;46.93
77526;BME280;66627;29.424;-98.496;2023-04-03T03:51:58;98262.03;;;26.03;47.85
77526;BME280;66627;29.424;-98.496;2023-04-03T03:54:24;98263.97;;;25.00;49.12
77526;BME280;66627;29.424;-98.496;2023-04-03T03:56:50;98267.11;;;26.21;47.52
77526;BME280;66627;29.424;-98.496;2023-04-03T03:59:15;98270.01;;;26.30;46.87
77526;BME280;66627;29.424;-98.496;2023-04-03T04:01:41;98273.31;;;26.39;47.08
77526;BME280;66627;29.424;-98.496;2023-04-03T04:04:07;98273.63;;;26.46;46.86
77526;BME280;66627;29.424;-98.496;2023-04-03T04:06:31;98274.29;;;26.38;47.07
77526;BME280;66627;29.424;-98.496;2023-04-03T04:08:57;98277.16;;;26.17;47.40
77526;BME280;66627;29.424;-98.496;2023-04-03T04:11:23;98279.11;;;26.66;46.50
77526;BME280;66627;29.424;-98.496;2023-04-03T04:13:49;98280.54;;;25.94;47.29
77526;BME280;66627;29.424;-98.496;2023-04-03T04:16:15;98279.87;;;26.18;47.35
77526;BME280;66627;29.424;-98.496;2023-04-03T04:18:39;98282.76;;;25.59;48.39
77526;BME280;66627;29.424;-98.496;2023-04-03T04:21:04;98281.29;;;25.20;49.07
77526;BME280;66627;29.424;-98.496;2023-04-03T04:23:30;98280.79;;;25.97;47.80
77526;BME280;66627;29.424;-98.496;2023-04-03T04:25:55;98281.00;;;25.39;48.81
77526;BME280;66627;29.424;-98.496;2023-04-03T04:28:23;98279.18;;;25.92;47.96
77526;BME280;66627;29.424;-98.496;2023-04-03T04:30:46;98277.86;;;25.51;48.63
77526;BME280;66627;29.424;-98.496;2023-04-03T04:33:12;98275.46;;;26.07;47.94
77526;BME280;66627;29.424;-98.496;2023-04-03T04:35:37;98279.50;;;25.74;48.25
77526;BME280;66627;29.424;-98.496;2023-04-03T04:38:11;98282.87;;;25.77;48.01
77526;BME280;66627;29.424;-98.496;2023-04-03T04:40:28;98285.20;;;25.84;47.95
77526;BME280;66627;29.424;-98.496;2023-04-03T04:42:53;98280.97;;;26.15;47.44
77526;BME280;66627;29.424;-98.496;2023-04-03T04:45:19;98278.15;;;25.89;47.84
77526;BME280;66627;29.424;-98.496;2023-04-03T04:47:44;98277.23;;;25.58;48.80
77526;BME280;66627;29.424;-98.496;2023-04-03T04:50:10;98277.86;;;26.06;48.01
77526;BME280;66627;29.424;-98.496;2023-04-03T04:52:35;98280.27;;;25.81;47.97
77526;BME280;66627;29.424;-98.496;2023-04-03T04:55:01;98284.76;;;26.09;48.25
77526;BME280;66627;29.424;-98.496;2023-04-03T04:57:27;98283.63;;;25.63;48.69
77526;BME280;66627;29.424;-98.496;2023-04-03T04:59:52;98289.11;;;25.40;48.72
77526;BME280;66627;29.424;-98.496;2023-04-03T05:02:17;98288.31;;;25.58;49.27
77526;BME280;66627;29.424;-98.496;2023-04-03T05:04:42;98289.33;;;25.34;48.85
77526;BME280;66627;29.424;-98.496;2023-04-03T05:07:07;98291.14;;;25.85;48.43
77526;BME280;66627;29.424;-98.496;2023-04-03T05:09:32;98292.57;;;25.96;48.24
77526;BME280;66627;29.424;-98.496;2023-04-03T05:11:57;98287.33;;;25.38;48.72
77526;BME280;66627;29.424;-98.496;2023-04-03T05:14:23;98288.96;;;25.54;48.85
77526;BME280;66627;29.424;-98.496;2023-04-03T05:16:48;98289.28;;;24.85;50.17
77526;BME280;66627;29.424;-98.496;2023-04-03T05:19:14;98287.44;;;25.67;49.23
77526;BME280;66627;29.424;-98.496;2023-04-03T05:21:39;98287.17;;;25.65;48.79
77526;BME280;66627;29.424;-98.496;2023-04-03T05:24:05;98285.56;;;25.65;48.69
77526;BME280;66627;29.424;-98.496;2023-04-03T05:26:30;98285.96;;;25.25;48.94
77526;BME280;66627;29.424;-98.496;2023-04-03T05:28:55;98284.53;;;25.69;49.19
77526;BME280;66627;29.424;-98.496;2023-04-03T05:31:21;98289.57;;;25.92;48.72
77526;BME280;66627;29.424;-98.496;2023-04-03T05:33:47;98290.24;;;24.88;49.74
77526;BME280;66627;29.424;-98.496;2023-04-03T05:36:12;98287.86;;;25.39;49.17
77526;BME280;66627;29.424;-98.496;2023-04-03T05:38:38;98290.27;;;25.36;49.79
77526;BME280;66627;29.424;-98.496;2023-04-03T05:41:03;98291.50;;;25.42;49.80
77526;BME280;66627;29.424;-98.496;2023-04-03T05:43:29;98293.27;;;25.54;49.42
77526;BME280;66627;29.424;-98.496;2023-04-03T05:45:55;98288.48;;;25.38;49.21
77526;BME280;66627;29.424;-98.496;2023-04-03T05:48:20;98290.82;;;25.50;49.43
77526;BME280;66627;29.424;-98.496;2023-04-03T05:50:46;98287.42;;;24.90;49.64
77526;BME280;66627;29.424;-98.496;2023-04-03T05:53:17;98283.44;;;25.28;49.45
77526;BME280;66627;29.424;-98.496;2023-04-03T05:55:37;98282.34;;;25.29;49.52
77526;BME280;66627;29.424;-98.496;2023-04-03T05:58:06;98284.00;;;25.19;49.56
77526;BME280;66627;29.424;-98.496;2023-04-03T06:00:30;98282.53;;;25.54;49.46
77526;BME280;66627;29.424;-98.496;2023-04-03T06:02:53;98279.18;;;25.23;49.97
77526;BME280;66627;29.424;-98.496;2023-04-03T06:05:21;98277.00;;;25.54;49.45
77526;BME280;66627;29.424;-98.496;2023-04-03T06:07:47;98276.50;;;25.07;49.72
77526;BME280;66627;29.424;-98.496;2023-04-03T06:10:14;98278.02;;;25.08;50.08
77526;BME280;66627;29.424;-98.496;2023-04-03T06:12:38;98281.06;;;23.91;52.16
77526;BME280;66627;29.424;-98.496;2023-04-03T06:15:01;98272.97;;;24.54;50.90
77526;BME280;66627;29.424;-98.496;2023-04-03T06:17:26;98271.01;;;24.29;52.00
77526;BME280;66627;29.424;-98.496;2023-04-03T06:19:52;98268.22;;;24.42;51.52
77526;BME280;66627;29.424;-98.496;2023-04-03T06:22:16;98268.09;;;24.71;50.98
77526;BME280;66627;29.424;-98.496;2023-04-03T06:24:44;98267.94;;;24.92;50.40
77526;BME280;66627;29.424;-98.496;2023-04-03T06:27:08;98265.27;;;25.04;50.34
77526;BME280;66627;29.424;-98.496;2023-04-03T06:29:36;98264.86;;;24.81;50.86
77526;BME280;66627;29.424;-98.496;2023-04-03T06:31:59;98262.87;;;25.07;50.28
77526;BME280;66627;29.424;-98.496;2023-04-03T06:34:24;98260.21;;;25.30;50.40
77526;BME280;66627;29.424;-98.496;2023-04-03T06:36:50;98261.89;;;24.00;52.38
77526;BME280;66627;29.424;-98.496;2023-04-03T06:39:16;98255.34;;;24.81;51.25
77526;BME280;66627;29.424;-98.496;2023-04-03T06:41:40;98256.36;;;24.65;51.79
77526;BME280;66627;29.424;-98.496;2023-04-03T06:44:06;98254.43;;;24.40;51.68
77526;BME280;66627;29.424;-98.496;2023-04-03T06:46:32;98251.70;;;24.69;51.15
77526;BME280;66627;29.424;-98.496;2023-04-03T06:48:58;98248.50;;;24.80;50.71
77526;BME280;66627;29.424;-98.496;2023-04-03T06:51:25;98250.69;;;25.03;50.80
77526;BME280;66627;29.424;-98.496;2023-04-03T06:53:49;98251.44;;;24.70;50.90
77526;BME280;66627;29.424;-98.496;2023-04-03T06:56:14;98249.52;;;24.55;51.65
77526;BME280;66627;29.424;-98.496;2023-04-03T06:58:40;98250.03;;;24.46;51.72
77526;BME280;66627;29.424;-98.496;2023-04-03T07:01:05;98247.57;;;24.25;51.78
77526;BME280;66627;29.424;-98.496;2023-04-03T07:03:30;98245.75;;;24.12;51.96
77526;BME280;66627;29.424;-98.496;2023-04-03T07:05:57;98242.27;;;24.64;51.32
77526;BME280;66627;29.424;-98.496;2023-04-03T07:08:21;98237.35;;;24.17;52.22
77526;BME280;66627;29.424;-98.496;2023-04-03T07:10:46;98232.96;;;24.28;51.66
77526;BME280;66627;29.424;-98.496;2023-04-03T07:13:11;98224.25;;;24.45;52.14
77526;BME280;66627;29.424;-98.496;2023-04-03T07:15:37;98222.29;;;24.19;51.92
77526;BME280;66627;29.424;-98.496;2023-04-03T07:18:02;98224.76;;;23.49;53.42
77526;BME280;66627;29.424;-98.496;2023-04-03T07:20:27;98219.57;;;24.26;52.49
77526;BME280;66627;29.424;-98.496;2023-04-03T07:22:52;98217.95;;;24.71;51.59
77526;BME280;66627;29.424;-98.496;2023-04-03T07:25:18;98216.71;;;24.76;51.40
77526;BME280;66627;29.424;-98.496;2023-04-03T07:27:43;98215.50;;;24.44;51.48
77526;BME280;66627;29.424;-98.496;2023-04-03T07:30:09;98211.31;;;23.94;52.17
77526;BME280;66627;29.424;-98.496;2023-04-03T07:32:34;98205.84;;;24.19;52.00
77526;BME280;66627;29.424;-98.496;2023-04-03T07:35:00;98203.13;;;24.13;52.01
77526;BME280;66627;29.424;-98.496;2023-04-03T07:37:24;98202.53;;;24.35;52.10
77526;BME280;66627;29.424;-98.496;2023-04-03T07:39:51;98200.29;;;24.41;51.76
77526;BME280;66627;29.424;-98.496;2023-04-03T07:42:16;98201.65;;;23.56;53.70
77526;BME280;66627;29.424;-98.496;2023-04-03T07:44:42;98198.78;;;23.94;53.13
77526;BME280;66627;29.424;-98.496;2023-04-03T07:47:07;98198.87;;;23.74;52.90
77526;BME280;66627;29.424;-98.496;2023-04-03T07:49:32;98198.31;;;23.55;53.03
77526;BME280;66627;29.424;-98.496;2023-04-03T07:51:57;98192.44;;;24.11;52.34
77526;BME280;66627;29.424;-98.496;2023-04-03T07:54:22;98190.30;;;24.09;52.23
77526;BME280;66627;29.424;-98.496;2023-04-03T07:56:48;98189.14;;;24.16;52.11
77526;BME280;66627;29.424;-98.496;2023-04-03T07:59:14;98186.88;;;24.38;51.64
77526;BME280;66627;29.424;-98.496;2023-04-03T08:01:39;98188.23;;;23.91;52.57
77526;BME280;66627;29.424;-98.496;2023-04-03T08:04:05;98189.03;;;23.48;53.69
77526;BME280;66627;29.424;-98.496;2023-04-03T08:06:31;98190.27;;;22.73;55.64
77526;BME280;66627;29.424;-98.496;2023-04-03T08:08:56;98186.65;;;22.30;56.71
77526;BME280;66627;29.424;-98.496;2023-04-03T08:11:21;98186.68;;;23.55;54.96
77526;BME280;66627;29.424;-98.496;2023-04-03T08:13:46;98180.76;;;23.16;55.96
77526;BME280;66627;29.424;-98.496;2023-04-03T08:16:12;98175.30;;;22.13;57.01
77526;BME280;66627;29.424;-98.496;2023-04-03T08:18:36;98175.85;;;22.96;56.37
77526;BME280;66627;29.424;-98.496;2023-04-03T08:21:05;98172.65;;;23.25;55.74
77526;BME280;66627;29.424;-98.496;2023-04-03T08:23:27;98178.69;;;23.37;55.68
77526;BME280;66627;29.424;-98.496;2023-04-03T08:25:52;98175.46;;;23.43;55.48
77526;BME280;66627;29.424;-98.496;2023-04-03T08:28:17;98173.84;;;22.14;57.23
77526;BME280;66627;29.424;-98.496;2023-04-03T08:30:43;98174.86;;;23.00;56.04
77526;BME280;66627;29.424;-98.496;2023-04-03T08:33:08;98177.36;;;22.93;55.72
77526;BME280;66627;29.424;-98.496;2023-04-03T08:35:33;98173.09;;;22.99;56.78
77526;BME280;66627;29.424;-98.496;2023-04-03T08:37:58;98168.85;;;23.48;55.40
77526;BME280;66627;29.424;-98.496;2023-04-03T08:40:24;98166.74;;;24.16;54.50
77526;BME280;66627;29.424;-98.496;2023-04-03T08:42:59;98162.73;;;24.09;53.67
77526;BME280;66627;29.424;-98.496;2023-04-03T08:45:17;98163.49;;;23.05;55.58
77526;BME280;66627;29.424;-98.496;2023-04-03T08:47:44;98157.30;;;23.93;54.13
77526;BME280;66627;29.424;-98.496;2023-04-03T08:50:11;98156.64;;;24.13;53.86
77526;BME280;66627;29.424;-98.496;2023-04-03T08:52:35;98155.01;;;23.77;53.94
77526;BME280;66627;29.424;-98.496;2023-04-03T08:54:58;98153.31;;;23.84;53.96
77526;BME280;66627;29.424;-98.496;2023-04-03T08:57:29;98152.57;;;24.27;53.70
77526;BME280;66627;29.424;-98.496;2023-04-03T08:59:48;98151.16;;;24.38;53.49
77526;BME280;66627;29.424;-98.496;2023-04-03T09:02:25;98149.87;;;24.31;53.54
77526;BME280;66627;29.424;-98.496;2023-04-03T09:04:39;98149.85;;;23.78;54.36
77526;BME280;66627;29.424;-98.496;2023-04-03T09:07:12;98152.14;;;23.77;54.88
77526;BME280;66627;29.424;-98.496;2023-04-03T09:09:33;98151.37;;;23.06;56.44
77526;BME280;66627;29.424;-98.496;2023-04-03T09:12:03;98143.89;;;23.81;54.56
77526;BME280;66627;29.424;-98.496;2023-04-03T09:14:26;98137.97;;;23.31;55.53
77526;BME280;66627;29.424;-98.496;2023-04-03T09:16:52;98143.03;;;22.92;56.46
77526;BME280;66627;29.424;-98.496;2023-04-03T09:19:19;98138.48;;;23.70;54.79
77526;BME280;66627;29.424;-98.496;2023-04-03T09:21:39;98140.52;;;24.13;54.46
77526;BME280;66627;29.424;-98.496;2023-04-03T09:24:05;98138.40;;;24.35;54.14
77526;BME280;66627;29.424;-98.496;2023-04-03T09:26:33;98135.03;;;23.85;54.01
77526;BME280;66627;29.424;-98.496;2023-04-03T09:28:57;98139.48;;;23.37;56.19
77526;BME280;66627;29.424;-98.496;2023-04-03T09:31:23;98140.42;;;23.34;56.27
77526;BME280;66627;29.424;-98.496;2023-04-03T09:33:46;98132.20;;;23.56;55.77
77526;BME280;66627;29.424;-98.496;2023-04-03T09:36:11;98131.70;;;23.89;55.13
77526;BME280;66627;29.424;-98.496;2023-04-03T09:38:36;98140.20;;;23.30;56.42
77526;BME280;66627;29.424;-98.496;2023-04-03T09:41:06;98133.62;;;23.62;55.21
77526;BME280;66627;29.424;-98.496;2023-04-03T09:43:29;98138.15;;;23.00;56.36
77526;BME280;66627;29.424;-98.496;2023-04-03T09:45:53;98138.17;;;23.79;55.47
77526;BME280;66627;29.424;-98.496;2023-04-03T09:48:20;98139.98;;;23.74;54.99
77526;BME280;66627;29.424;-98.496;2023-04-03T09:50:56;98142.12;;;23.72;55.49
77526;BME280;66627;29.424;-98.496;2023-04-03T09:53:26;98143.01;;;23.83;55.21
77526;BME280;66627;29.424;-98.496;2023-04-03T09:55:43;98140.82;;;23.67;55.43
77526;BME280;66627;29.424;-98.496;2023-04-03T09:58:02;98139.66;;;23.76;54.51
77526;BME280;66627;29.424;-98.496;2023-04-03T10:00:28;98141.44;;;23.80;54.26
77526;BME280;66627;29.424;-98.496;2023-04-03T10:02:53;98144.04;;;24.02;54.08
77526;BME280;66627;29.424;-98.496;2023-04-03T10:05:27;98138.54;;;23.97;54.17
77526;BME280;66627;29.424;-98.496;2023-04-03T10:07:42;98140.07;;;24.30;53.91
77526;BME280;66627;29.424;-98.496;2023-04-03T10:12:32;98141.98;;;23.21;55.45
77526;BME280;66627;29.424;-98.496;2023-04-03T10:15:00;98135.84;;;24.68;52.99
77526;BME280;66627;29.424;-98.496;2023-04-03T10:17:33;98133.88;;;23.96;53.77
77526;BME280;66627;29.424;-98.496;2023-04-03T10:19:51;98126.94;;;23.69;54.54
77526;BME280;66627;29.424;-98.496;2023-04-03T10:22:19;98130.24;;;23.95;54.23
77526;BME280;66627;29.424;-98.496;2023-04-03T10:24:47;98129.47;;;23.95;54.22
77526;BME280;66627;29.424;-98.496;2023-04-03T10:27:08;98129.23;;;24.14;53.57
77526;BME280;66627;29.424;-98.496;2023-04-03T10:29:39;98128.53;;;24.42;53.36
77526;BME280;66627;29.424;-98.496;2023-04-03T10:32:02;98131.60;;;24.17;53.99
77526;BME280;66627;29.424;-98.496;2023-04-03T10:34:23;98135.05;;;22.50;56.20
77526;BME280;66627;29.424;-98.496;2023-04-03T10:36:52;98138.42;;;23.99;53.60
77526;BME280;66627;29.424;-98.496;2023-04-03T10:39:19;98142.49;;;23.78;54.08
77526;BME280;66627;29.424;-98.496;2023-04-03T10:41:49;98146.10;;;23.17;55.28
77526;BME280;66627;29.424;-98.496;2023-04-03T10:44:12;98147.42;;;23.57;55.26
77526;BME280;66627;29.424;-98.496;2023-04-03T10:46:32;98152.17;;;23.30;55.75
77526;BME280;66627;29.424;-98.496;2023-04-03T10:49:03;98150.65;;;23.86;54.20
77526;BME280;66627;29.424;-98.496;2023-04-03T10:51:27;98154.57;;;24.17;53.97
77526;BME280;66627;29.424;-98.496;2023-04-03T10:53:48;98161.82;;;24.03;54.06
77526;BME280;66627;29.424;-98.496;2023-04-03T10:56:13;98163.55;;;23.99;54.35
77526;BME280;66627;29.424;-98.496;2023-04-03T10:58:36;98168.07;;;24.49;53.44
77526;BME280;66627;29.424;-98.496;2023-04-03T11:01:05;98169.55;;;24.33;53.18
77526;BME280;66627;29.424;-98.496;2023-04-03T11:03:30;98173.54;;;23.20;55.30
77526;BME280;66627;29.424;-98.496;2023-04-03T11:05:52;98169.49;;;23.64;54.26
77526;BME280;66627;29.424;-98.496;2023-04-03T11:08:24;98167.39;;;23.89;54.36
77526;BME280;66627;29.424;-98.496;2023-04-03T11:10:43;98168.49;;;23.87;54.24
77526;BME280;66627;29.424;-98.496;2023-04-03T11:13:13;98175.93;;;24.32;53.14
77526;BME280;66627;29.424;-98.496;2023-04-03T11:15:33;98174.49;;;24.63;52.99
77526;BME280;66627;29.424;-98.496;2023-04-03T11:18:02;98173.00;;;23.67;54.70
77526;BME280;66627;29.424;-98.496;2023-04-03T11:20:27;98173.66;;;23.37;54.70
77526;BME280;66627;29.424;-98.496;2023-04-03T11:22:53;98179.85;;;24.61;52.40
77526;BME280;66627;29.424;-98.496;2023-04-03T11:25:19;98183.24;;;24.43;52.85
77526;BME280;66627;29.424;-98.496;2023-04-03T11:27:42;98177.41;;;24.26;53.08
77526;BME280;66627;29.424;-98.496;2023-04-03T11:30:07;98177.94;;;24.66;52.33
77526;BME280;66627;29.424;-98.496;2023-04-03T11:32:43;98181.79;;;24.45;52.34
77526;BME280;66627;29.424;-98.496;2023-04-03T11:34:57;98185.19;;;24.07;53.16
77526;BME280;66627;29.424;-98.496;2023-04-03T11:37:29;98185.35;;;23.82;54.07
77526;BME280;66627;29.424;-98.496;2023-04-03T11:39:52;98187.94;;;24.75;52.87
77526;BME280;66627;29.424;-98.496;2023-04-03T11:42:16;98190.40;;;24.34;53.58
77526;BME280;66627;29.424;-98.496;2023-04-03T11:44:38;98190.17;;;24.19;53.02
77526;BME280;66627;29.424;-98.496;2023-04-03T11:47:05;98190.56;;;24.56;52.73
77526;BME280;66627;29.424;-98.496;2023-04-03T11:51:54;98192.27;;;22.81;55.71
77526;BME280;66627;29.424;-98.496;2023-04-03T11:56:45;98196.34;;;24.23;53.43
77526;BME280;66627;29.424;-98.496;2023-04-03T11:59:22;98201.47;;;23.53;54.58
77526;BME280;66627;29.424;-98.496;2023-04-03T12:01:44;98204.19;;;23.63;54.69
77526;BME280;66627;29.424;-98.496;2023-04-03T12:04:10;98203.45;;;23.74;53.84
77526;BME280;66627;29.424;-98.496;2023-04-03T12:08:53;98209.89;;;23.89;53.87
77526;BME280;66627;29.424;-98.496;2023-04-03T12:11:26;98210.85;;;24.31;53.46
77526;BME280;66627;29.424;-98.496;2023-04-03T12:16:19;98215.58;;;24.34;53.65
77526;BME280;66627;29.424;-98.496;2023-04-03T12:18:42;98220.58;;;24.01;53.74
77526;BME280;66627;29.424;-98.496;2023-04-03T12:21:00;98225.84;;;23.37;55.21
77526;BME280;66627;29.424;-98.496;2023-04-03T12:23:30;98226.12;;;23.65;54.41
77526;BME280;66627;29.424;-98.496;2023-04-03T12:25:51;98225.92;;;24.05;54.07
77526;BME280;66627;29.424;-98.496;2023-04-03T12:28:16;98238.76;;;23.11;55.73
77526;BME280;66627;29.424;-98.496;2023-04-03T12:30:43;98244.83;;;22.36;56.81
77526;BME280;66627;29.424;-98.496;2023-04-03T12:33:20;98243.67;;;23.69;54.52
77526;BME280;66627;29.424;-98.496;2023-04-03T12:35:38;98247.40;;;23.42;55.16
77526;BME280;66627;29.424;-98.496;2023-04-03T12:38:15;98249.77;;;23.94;54.23
77526;BME280;66627;29.424;-98.496;2023-04-03T12:40:27;98252.25;;;23.90;54.64
77526;BME280;66627;29.424;-98.496;2023-04-03T12:43:07;98250.80;;;24.43;53.47
77526;BME280;66627;29.424;-98.496;2023-04-03T12:45:19;98255.65;;;23.20;55.54